Weather History for Dixon AP, Dixon, WY, WY

Change the Weather History Date:

Sunday, February 23, 2014

  Actual Average (KCAG) Record (KCAG)
Temperature  
Mean Temperature 35 °F 23 °F  
Max Temperature 46 °F 36 °F 48 °F (2002)
Min Temperature 24 °F 10 °F -2 °F (2006)
Degree Days  
Heating Degree Days 30 42  
Month to date heating degree days 1037  
Since 1 July heating degree days 6121  
Cooling Degree Days 0 0  
Month to date cooling degree days 0  
Year to date cooling degree days 0  
Moisture  
Dew Point 20 °F    
Average Humidity 57    
Maximum Humidity 81    
Minimum Humidity 32    
Precipitation  
Precipitation 0.00 in 0.02 in 0.11 in (1998)
Month to date precipitation 0.67  
Year to date precipitation 1.55  
Sea Level Pressure  
Sea Level Pressure 30.01 in    
Wind  
Wind Speed 6 mph (WSW)    
Max Wind Speed 22 mph    
Max Gust Speed 26 mph    
Visibility 10 miles    
Events      
T = Trace of Precipitation, MM = Missing Value Source: NWS Daily Summary

Daily Weather History Graph

Daily Weather History Graph

Search for Another Location

Airport:

Trip Planner

Search our weather history database for the weather conditions in past years. The results will help you decide how hot, cold, wet, or windy it might be!

Date:

Astronomy

Feb. 23, 2014 Rise Set
Actual Time 6:53 AM MST 5:54 PM MST
Civil Twilight 6:25 AM MST 6:21 PM MST
Nautical Twilight 5:53 AM MST 6:53 PM MST
Astronomical Twilight 5:21 AM MST 7:25 PM MST
Moon 1:55 AM MST (2/23) 11:57 AM MST (2/23)
Length of Visible Light 11h 56m
Length of Day
11h 00m
Last Quarter, 38% of the Moon is Illuminated
Feb 23
Last Quarter
Mar 1
New
Mar 8
First Quarter
Mar 16
Full
Mar 23
Last Quarter

Hourly Weather History & Observations

Time (MST) Temp. Windchill Dew Point Humidity Pressure Visibility Wind Dir Wind Speed Gust Speed Precip Events Conditions
12:15 AM 25.3 °F - 19.4 °F 78% 29.96 in 10.0 mi Calm Calm - N/A   Overcast
12:35 AM 25.0 °F - 19.8 °F 81% 29.97 in 10.0 mi Calm Calm - N/A   Overcast
12:55 AM 26.4 °F - 20.1 °F 77% 29.96 in 10.0 mi Calm Calm - N/A   Overcast
1:15 AM 25.3 °F 21.1 °F 19.4 °F 78% 29.97 in 10.0 mi NW 3.5 mph - N/A   Mostly Cloudy
1:35 AM 29.5 °F 23.4 °F 17.6 °F 61% 29.98 in 10.0 mi West 5.8 mph - N/A   Mostly Cloudy
1:55 AM 27.9 °F 24.0 °F 18.0 °F 66% 29.98 in 10.0 mi WNW 3.5 mph - N/A   Scattered Clouds
2:15 AM 27.1 °F 23.2 °F 17.4 °F 67% 29.98 in 10.0 mi WSW 3.5 mph - N/A   Clear
2:35 AM 27.7 °F 19.6 °F 17.4 °F 65% 29.98 in 10.0 mi SW 8.1 mph - N/A   Clear
2:55 AM 26.1 °F 21.9 °F 17.6 °F 70% 29.98 in 10.0 mi West 3.5 mph - N/A   Clear
3:15 AM 27.0 °F 23.0 °F 17.4 °F 67% 29.97 in 10.0 mi WSW 3.5 mph - N/A   Scattered Clouds
3:35 AM 24.6 °F - 16.7 °F 72% 29.98 in 10.0 mi Calm Calm - N/A   Overcast
3:55 AM 24.6 °F 20.3 °F 16.9 °F 72% 29.98 in 10.0 mi WNW 3.5 mph - N/A   Overcast
4:15 AM 25.0 °F 19.3 °F 17.4 °F 73% 29.98 in 10.0 mi West 4.6 mph - N/A   Mostly Cloudy
4:35 AM 26.1 °F 21.9 °F 18.3 °F 73% 29.98 in 10.0 mi West 3.5 mph - N/A   Overcast
4:55 AM 25.7 °F 21.5 °F 18.0 °F 73% 29.99 in 10.0 mi WNW 3.5 mph - N/A   Mostly Cloudy
5:15 AM 27.3 °F 23.4 °F 18.9 °F 70% 29.99 in 10.0 mi West 3.5 mph - N/A   Overcast
5:35 AM 25.7 °F 21.5 °F 18.1 °F 73% 29.99 in 10.0 mi NW 3.5 mph - N/A   Overcast
5:55 AM 24.8 °F - 18.1 °F 76% 29.99 in 10.0 mi Calm Calm - N/A   Overcast
6:15 AM 26.4 °F 19.8 °F 18.5 °F 72% 30.00 in 10.0 mi NNW 5.8 mph - N/A   Overcast
6:35 AM 29.7 °F 23.7 °F 19.2 °F 65% 30.00 in 10.0 mi West 5.8 mph - N/A   Overcast
6:55 AM 30.2 °F 23.4 °F 19.2 °F 64% 30.01 in 10.0 mi West 6.9 mph - N/A   Overcast
7:15 AM 29.1 °F 21.3 °F 18.9 °F 66% 30.01 in 10.0 mi West 8.1 mph - N/A   Mostly Cloudy
7:35 AM 28.6 °F 22.4 °F 18.5 °F 66% 30.02 in 10.0 mi West 5.8 mph - N/A   Clear
7:55 AM 28.6 °F 22.4 °F 18.5 °F 66% 30.02 in 10.0 mi WSW 5.8 mph - N/A   Scattered Clouds
8:15 AM 30.6 °F 23.1 °F 18.5 °F 61% 30.02 in 10.0 mi SW 8.1 mph - N/A   Scattered Clouds
8:35 AM 30.4 °F - 18.9 °F 62% 30.03 in 10.0 mi Calm Calm - N/A   Mostly Cloudy
8:55 AM 35.6 °F 27.1 °F 18.1 °F 49% 30.04 in 10.0 mi SSW 12.7 mph - N/A   Overcast
9:15 AM 35.6 °F 26.2 °F 17.8 °F 48% 30.05 in 10.0 mi SSW 15.0 mph 21.9 mph N/A   Overcast
9:35 AM 37.2 °F 27.9 °F 17.6 °F 45% 30.06 in 10.0 mi SSW 16.1 mph 20.7 mph N/A   Overcast
9:55 AM 37.8 °F 29.4 °F 18.1 °F 45% 30.06 in 10.0 mi SSW 13.8 mph - N/A   Overcast
10:15 AM 39.2 °F 30.5 °F 17.6 °F 42% 30.06 in 10.0 mi South 16.1 mph - N/A   Overcast
10:35 AM 39.2 °F 30.2 °F 18.3 °F 43% 30.06 in 10.0 mi SSW 17.3 mph 21.9 mph N/A   Overcast
10:55 AM 40.6 °F 32.0 °F 19.0 °F 42% 30.05 in 10.0 mi SSW 17.3 mph 23.0 mph N/A   Overcast
11:15 AM 40.1 °F 31.6 °F 18.3 °F 42% 30.06 in 10.0 mi WSW 16.1 mph 21.9 mph N/A   Overcast
11:35 AM 42.1 °F 34.9 °F 18.7 °F 39% 30.05 in 10.0 mi SW 13.8 mph 24.2 mph N/A   Overcast
11:55 AM 41.2 °F 33.4 °F 18.5 °F 40% 30.04 in 10.0 mi WSW 15.0 mph 21.9 mph N/A   Overcast
12:15 PM 43.7 °F 36.6 °F 18.7 °F 37% 30.04 in 10.0 mi SW 15.0 mph 23.0 mph N/A   Overcast
12:35 PM 45.7 °F 38.3 °F 18.9 °F 34% 30.03 in 10.0 mi SSW 18.4 mph 25.3 mph N/A   Overcast
12:55 PM 45.0 °F 36.6 °F 19.0 °F 36% 30.03 in 10.0 mi SSW 21.9 mph 25.3 mph N/A   Overcast
1:15 PM 45.3 °F 39.0 °F 19.2 °F 35% 30.02 in 10.0 mi SW 13.8 mph 24.2 mph N/A   Overcast
1:35 PM 44.1 °F 36.8 °F 19.4 °F 37% 30.01 in 10.0 mi SSW 16.1 mph 19.6 mph N/A   Overcast
1:55 PM 44.6 °F 37.2 °F 19.4 °F 37% 30.01 in 10.0 mi SW 17.3 mph 21.9 mph N/A   Overcast
2:15 PM 43.7 °F 36.6 °F 19.0 °F 37% 30.01 in 10.0 mi SW 15.0 mph 19.6 mph N/A   Overcast
2:35 PM 43.9 °F 37.2 °F 19.9 °F 38% 30.01 in 10.0 mi SW 13.8 mph 20.7 mph N/A   Overcast
2:55 PM 43.7 °F 37.7 °F 19.6 °F 38% 30.01 in 10.0 mi WSW 11.5 mph 17.3 mph N/A   Overcast
3:15 PM 44.6 °F 38.8 °F 18.1 °F 35% 30.00 in 10.0 mi SW 11.5 mph - N/A   Overcast
3:35 PM 45.3 °F 38.1 °F 18.3 °F 34% 30.00 in 10.0 mi SW 17.3 mph - N/A   Overcast
3:55 PM 46.6 °F - 18.3 °F 32% 29.99 in 10.0 mi WSW 15.0 mph 21.9 mph N/A   Overcast
4:15 PM 46.9 °F - 18.0 °F 32% 29.99 in 10.0 mi SW 20.7 mph 26.5 mph N/A   Overcast
4:35 PM 45.5 °F 38.1 °F 17.4 °F 33% 29.99 in 10.0 mi WSW 18.4 mph 21.9 mph N/A   Scattered Clouds
4:55 PM 45.7 °F 38.8 °F 17.8 °F 33% 29.99 in 10.0 mi WSW 16.1 mph 24.2 mph N/A   Scattered Clouds
5:15 PM 43.9 °F 37.9 °F 19.0 °F 37% 30.00 in 10.0 mi WSW 11.5 mph 19.6 mph N/A   Scattered Clouds
5:35 PM 43.9 °F 36.8 °F 18.1 °F 36% 29.99 in 10.0 mi WSW 15.0 mph 23.0 mph N/A   Clear
5:55 PM 42.8 °F 34.5 °F 18.1 °F 37% 29.99 in 10.0 mi WSW 18.4 mph 21.9 mph N/A   Clear
6:15 PM 42.1 °F 34.2 °F 18.5 °F 39% 30.00 in 10.0 mi WSW 16.1 mph - N/A   Clear
6:35 PM 37.9 °F 32.7 °F 23.0 °F 55% 30.01 in 10.0 mi West 6.9 mph - N/A   Clear
6:55 PM 37.6 °F 31.0 °F 22.3 °F 54% 30.01 in 10.0 mi West 9.2 mph - N/A   Clear
7:15 PM 36.1 °F 29.9 °F 22.6 °F 58% 30.01 in 10.0 mi SSW 8.1 mph - N/A   Clear
7:35 PM 36.7 °F 31.2 °F 21.9 °F 55% 30.01 in 10.0 mi SW 6.9 mph - N/A   Clear
7:55 PM 36.1 °F 33.5 °F 22.6 °F 58% 30.01 in 10.0 mi West 3.5 mph - N/A   Clear
8:15 PM 34.2 °F - 23.5 °F 65% 30.01 in 10.0 mi Calm Calm - N/A   Clear
8:35 PM 31.5 °F - 25.7 °F 79% 30.02 in 10.0 mi Calm Calm - N/A   Clear
8:55 PM 30.9 °F - 25.7 °F 81% 30.03 in 10.0 mi Calm Calm - N/A   Clear
9:15 PM 31.5 °F 28.1 °F 25.7 °F 79% 30.04 in 10.0 mi NNE 3.5 mph - N/A   Clear
9:35 PM 32.0 °F - 25.3 °F 76% 30.05 in 10.0 mi Calm Calm - N/A   Clear
9:55 PM 32.0 °F - 25.3 °F 76% 30.05 in 10.0 mi Calm Calm - N/A   Clear
10:15 PM 30.9 °F - 25.7 °F 81% 30.05 in 10.0 mi Calm Calm - N/A   Clear
10:35 PM 31.6 °F 28.3 °F 25.2 °F 77% 30.06 in 10.0 mi NE 3.5 mph - N/A   Clear
10:55 PM 30.9 °F - 25.3 °F 80% 30.06 in 10.0 mi Calm Calm - N/A   Clear
11:15 PM 31.8 °F - 24.8 °F 75% 30.05 in 10.0 mi Calm Calm - N/A   Clear
11:35 PM 33.3 °F 28.9 °F 23.2 °F 67% 30.04 in 10.0 mi WSW 4.6 mph - N/A   Clear
11:55 PM 32.9 °F 29.8 °F 23.5 °F 68% 30.03 in 10.0 mi West 3.5 mph - N/A   Clear